createdAt,value
2022-08-04T00:00:15.137Z,11.23
2022-08-04T00:03:08.227Z,10.38
2022-08-04T00:05:41.890Z,11.02
2022-08-04T00:08:22.774Z,11.63
2022-08-04T00:10:53.665Z,10.48
2022-08-04T00:13:25.606Z,10.60
2022-08-04T00:15:59.383Z,11.07
2022-08-04T00:18:33.384Z,10.45
2022-08-04T00:21:05.710Z,10.90
2022-08-04T00:24:10.876Z,10.60
2022-08-04T00:26:23.578Z,10.05
2022-08-04T00:28:53.971Z,10.52
2022-08-04T00:31:33.361Z,9.93
2022-08-04T00:34:13.861Z,10.65
2022-08-04T00:36:43.858Z,9.95
2022-08-04T00:39:16.234Z,9.82
2022-08-04T00:42:16.907Z,11.93
2022-08-04T00:44:49.499Z,11.02
2022-08-04T00:47:47.481Z,10.85
2022-08-04T00:50:42.940Z,11.50
2022-08-04T00:53:22.701Z,11.55
2022-08-04T00:56:11.094Z,11.48
2022-08-04T00:59:02.762Z,11.70
2022-08-04T01:01:29.639Z,11.27
2022-08-04T01:04:04.354Z,12.00
2022-08-04T01:06:38.771Z,11.73
2022-08-04T01:09:08.908Z,12.23
2022-08-04T01:12:23.740Z,11.90
2022-08-04T01:15:06.572Z,11.35
2022-08-04T01:17:36.242Z,12.15
2022-08-04T01:20:11.507Z,11.32
2022-08-04T01:22:38.342Z,11.68
2022-08-04T01:25:38.474Z,11.23
2022-08-04T01:28:42.852Z,11.68
2022-08-04T01:31:21.795Z,11.90
2022-08-04T01:33:58.551Z,11.35
2022-08-04T01:36:34.695Z,10.85
2022-08-04T01:39:22.180Z,11.20
2022-08-04T01:41:57.699Z,12.35
2022-08-04T01:44:31.487Z,11.48
2022-08-04T01:47:01.750Z,10.90
2022-08-04T01:49:32.161Z,10.60
2022-08-04T01:52:10.298Z,11.77
2022-08-04T01:54:41.636Z,11.52
2022-08-04T01:57:38.713Z,10.85
2022-08-04T02:00:00.555Z,11.63
2022-08-04T02:02:27.721Z,10.95
2022-08-04T02:04:54.697Z,11.27
2022-08-04T02:07:46.458Z,11.48
2022-08-04T02:10:56.542Z,11.75
2022-08-04T02:13:35.111Z,12.27
2022-08-04T02:16:04.341Z,13.93
2022-08-04T02:18:46.501Z,12.57
2022-08-04T02:21:17.350Z,12.20
2022-08-04T02:23:49.583Z,11.65
2022-08-04T02:26:23.019Z,11.70
2022-08-04T02:29:17.062Z,10.63
2022-08-04T02:31:52.668Z,11.23
2022-08-04T02:34:28.921Z,12.88
2022-08-04T02:36:57.536Z,13.15
2022-08-04T02:39:29.454Z,14.10
2022-08-04T02:41:58.572Z,14.27
2022-08-04T02:44:28.313Z,14.45
2022-08-04T02:46:55.652Z,13.80
2022-08-04T02:49:23.986Z,12.65
2022-08-04T02:51:53.667Z,12.85
2022-08-04T02:54:32.476Z,13.30
2022-08-04T02:57:02.505Z,13.30
2022-08-04T03:00:03.213Z,15.30
2022-08-04T03:03:08.021Z,16.23
2022-08-04T03:05:51.901Z,15.85
2022-08-04T03:11:35.822Z,14.02
2022-08-04T03:14:21.626Z,15.50
2022-08-04T03:17:15.278Z,15.15
2022-08-04T03:20:07.298Z,14.95
2022-08-04T03:23:13.445Z,14.52
2022-08-04T03:26:19.033Z,15.75
2022-08-04T03:29:36.238Z,14.82
2022-08-04T03:32:30.083Z,14.80
2022-08-04T03:35:02.936Z,14.65
2022-08-04T03:40:40.086Z,14.05
2022-08-04T03:43:58.774Z,13.85
2022-08-04T03:46:45.090Z,14.68
2022-08-04T03:49:47.432Z,14.70
2022-08-04T03:53:09.137Z,14.60
2022-08-04T03:56:00.570Z,15.48
2022-08-04T03:59:04.848Z,15.23
2022-08-04T04:02:06.579Z,14.50
2022-08-04T04:04:55.170Z,13.60
2022-08-04T04:07:40.162Z,13.43
2022-08-04T04:10:44.523Z,15.45
2022-08-04T04:13:24.887Z,15.77
2022-08-04T04:16:24.626Z,16.08
2022-08-04T04:19:16.055Z,17.05
2022-08-04T04:21:54.925Z,18.00
2022-08-04T04:24:41.742Z,16.70
2022-08-04T04:27:47.086Z,18.40
2022-08-04T04:30:39.994Z,15.65
2022-08-04T04:33:29.150Z,16.83
2022-08-04T04:36:27.041Z,17.55
2022-08-04T04:39:11.949Z,16.95
2022-08-04T04:42:07.464Z,15.57
2022-08-04T04:45:10.108Z,16.00
2022-08-04T04:48:09.800Z,15.60
2022-08-04T04:51:10.762Z,16.17
2022-08-04T04:54:01.718Z,17.08
2022-08-04T04:56:38.550Z,16.17
2022-08-04T04:59:13.081Z,17.02
2022-08-04T05:02:07.449Z,16.17
2022-08-04T05:04:43.418Z,17.05
2022-08-04T05:07:28.981Z,16.17
2022-08-04T05:09:59.099Z,16.63
2022-08-04T05:14:34.916Z,15.80
2022-08-04T05:15:47.066Z,15.98
2022-08-04T05:18:21.347Z,15.88
2022-08-04T05:20:55.494Z,14.60
2022-08-04T05:23:27.746Z,13.98
2022-08-04T05:26:02.602Z,13.68
2022-08-04T05:28:45.357Z,13.85
2022-08-04T05:31:14.075Z,14.73
2022-08-04T05:33:53.850Z,14.02
2022-08-04T05:36:40.533Z,13.45
2022-08-04T05:39:15.716Z,13.25
2022-08-04T05:41:46.303Z,12.85
2022-08-04T05:44:23.824Z,13.00
2022-08-04T05:46:56.006Z,13.25
2022-08-04T05:49:28.298Z,13.07
2022-08-04T05:54:26.359Z,13.32
2022-08-04T05:56:54.099Z,12.15
2022-08-04T05:59:25.709Z,12.30
2022-08-04T06:01:57.273Z,12.75
2022-08-04T06:04:33.043Z,13.65
2022-08-04T06:07:00.159Z,11.68
2022-08-04T06:09:27.595Z,11.88
2022-08-04T06:12:02.037Z,11.40
2022-08-04T06:14:42.409Z,12.27
2022-08-04T06:18:32.292Z,12.02
2022-08-04T06:20:20.133Z,11.73
2022-08-04T06:23:02.920Z,12.52
2022-08-04T06:25:33.155Z,12.32
2022-08-04T06:28:05.283Z,11.68
2022-08-04T06:33:04.997Z,11.10
2022-08-04T06:35:33.895Z,11.20
2022-08-04T06:38:03.339Z,11.18
2022-08-04T06:40:36.600Z,11.25
2022-08-04T06:43:07.738Z,10.65
2022-08-04T06:45:37.557Z,10.05
2022-08-04T06:48:06.478Z,11.38
2022-08-04T06:51:25.419Z,11.00
2022-08-04T06:53:26.033Z,9.20
2022-08-04T06:55:54.233Z,9.43
2022-08-04T06:58:21.996Z,9.82
2022-08-04T07:00:50.790Z,9.50
2022-08-04T07:03:19.462Z,9.45
2022-08-04T07:05:51.671Z,8.93
2022-08-04T07:08:19.582Z,8.60
2022-08-04T07:10:46.979Z,8.55
2022-08-04T07:13:14.296Z,8.05
2022-08-04T07:15:46.054Z,8.23
2022-08-04T07:18:13.183Z,7.27
2022-08-04T07:20:44.940Z,7.65
2022-08-04T07:23:21.401Z,7.88
2022-08-04T07:25:59.671Z,7.82
2022-08-04T07:28:40.374Z,7.70
2022-08-04T07:31:11.114Z,7.68
2022-08-04T07:34:16.823Z,6.93
2022-08-04T07:36:50.926Z,8.25
2022-08-04T07:41:56.802Z,7.03
2022-08-04T07:44:25.317Z,5.75
2022-08-04T07:46:52.691Z,6.32
2022-08-04T07:49:55.446Z,6.47
2022-08-04T07:52:10.511Z,6.95
2022-08-04T07:54:39.188Z,6.53
2022-08-04T07:57:06.213Z,6.28
2022-08-04T07:59:35.326Z,6.05
2022-08-04T08:02:03.134Z,6.38
2022-08-04T08:04:30.480Z,6.22
2022-08-04T08:06:58.895Z,5.90
2022-08-04T08:09:26.190Z,5.53
2022-08-04T08:12:35.114Z,4.78
2022-08-04T08:14:42.645Z,5.60
2022-08-04T08:17:09.643Z,6.05
2022-08-04T08:19:36.988Z,5.82
2022-08-04T08:22:05.206Z,6.28
2022-08-04T08:24:35.971Z,5.78
2022-08-04T08:27:04.721Z,5.90
2022-08-04T08:29:34.441Z,6.22
2022-08-04T08:32:07.816Z,6.00
2022-08-04T08:34:36.257Z,7.38
2022-08-04T08:37:31.652Z,6.32
2022-08-04T08:40:17.331Z,5.95
2022-08-04T08:44:05.153Z,5.53
2022-08-04T08:46:45.224Z,5.40
2022-08-04T08:49:11.908Z,5.47
2022-08-04T08:52:57.536Z,4.65
2022-08-04T08:55:38.111Z,4.93
2022-08-04T08:58:40.529Z,4.57
2022-08-04T09:01:34.422Z,6.00
2022-08-04T09:04:32.225Z,4.40
2022-08-04T09:07:17.251Z,4.53
2022-08-04T09:10:02.283Z,4.75
2022-08-04T09:12:41.692Z,4.22
2022-08-04T09:15:27.447Z,4.32
2022-08-04T09:18:15.834Z,4.70
2022-08-04T09:21:06.735Z,5.32
2022-08-04T09:23:39.754Z,4.50
2022-08-04T09:26:19.171Z,5.35
2022-08-04T09:29:03.302Z,5.10
2022-08-04T09:31:51.607Z,5.47
2022-08-04T09:34:30.122Z,5.20
2022-08-04T09:37:13.153Z,4.55
2022-08-04T09:40:06.419Z,4.20
2022-08-04T09:42:52.338Z,4.88
2022-08-04T09:45:42.352Z,3.90
2022-08-04T09:48:16.716Z,4.70
2022-08-04T09:50:50.501Z,5.53
2022-08-04T09:53:53.638Z,4.57
2022-08-04T09:56:35.576Z,4.97
2022-08-04T09:59:27.605Z,4.65
2022-08-04T10:02:05.846Z,4.90
2022-08-04T10:04:33.912Z,4.97
2022-08-04T10:07:24.651Z,4.50
2022-08-04T10:10:03.507Z,4.87
2022-08-04T10:12:57.520Z,4.20
2022-08-04T10:15:48.724Z,4.25
2022-08-04T10:18:38.382Z,4.03
2022-08-04T10:21:16.630Z,4.40
2022-08-04T10:24:00.521Z,5.13
2022-08-04T10:26:34.954Z,4.50
2022-08-04T10:29:12.669Z,5.15
2022-08-04T10:31:48.272Z,5.05
2022-08-04T10:34:22.077Z,4.35
2022-08-04T10:37:21.869Z,5.20
2022-08-04T10:40:38.036Z,4.80
2022-08-04T10:43:26.102Z,5.05
2022-08-04T10:46:10.325Z,4.78
2022-08-04T10:48:52.440Z,4.30
2022-08-04T10:52:11.869Z,4.78
2022-08-04T10:54:48.168Z,4.60
2022-08-04T10:57:23.845Z,4.85
2022-08-04T11:00:03.329Z,4.90
2022-08-04T11:03:01.875Z,4.90
2022-08-04T11:05:44.666Z,4.80
2022-08-04T11:08:21.883Z,6.05
2022-08-04T11:10:59.284Z,5.25
2022-08-04T11:13:47.380Z,5.40
2022-08-04T11:16:24.595Z,5.70
2022-08-04T11:19:44.746Z,4.85
2022-08-04T11:22:22.977Z,4.82
2022-08-04T11:25:03.429Z,5.25
2022-08-04T11:27:45.151Z,4.90
2022-08-04T11:30:15.334Z,6.13
2022-08-04T11:32:49.765Z,4.82
2022-08-04T11:35:45.764Z,5.07
2022-08-04T11:38:23.869Z,4.82
2022-08-04T11:41:02.669Z,4.68
2022-08-04T11:44:01.443Z,4.70
2022-08-04T11:46:39.497Z,4.70
2022-08-04T11:49:31.063Z,4.45
2022-08-04T11:52:01.175Z,4.30
2022-08-04T11:54:28.839Z,4.15
2022-08-04T11:56:56.181Z,4.18
2022-08-04T11:59:24.348Z,4.47
2022-08-04T12:02:21.325Z,4.45
2022-08-04T12:04:59.077Z,4.55
2022-08-04T12:07:41.500Z,4.85
2022-08-04T12:13:22.635Z,4.68
2022-08-04T12:16:18.058Z,4.20
2022-08-04T12:18:56.572Z,4.07
2022-08-04T12:21:33.762Z,4.20
2022-08-04T12:24:17.557Z,4.07
2022-08-04T12:26:51.707Z,3.95
2022-08-04T12:29:21.729Z,3.90
2022-08-04T12:31:52.984Z,4.25
2022-08-04T12:34:40.983Z,4.30
2022-08-04T12:37:13.945Z,3.92
2022-08-04T12:40:28.692Z,3.60
2022-08-04T12:42:59.365Z,4.15
2022-08-04T12:45:28.733Z,3.90
2022-08-04T12:47:58.984Z,3.50
2022-08-04T12:50:26.568Z,3.45
2022-08-04T12:53:04.546Z,3.30
2022-08-04T12:55:35.208Z,3.50
2022-08-04T12:58:11.655Z,3.50
2022-08-04T13:00:41.860Z,3.67
2022-08-04T13:03:12.505Z,3.50
2022-08-04T13:05:41.077Z,3.85
2022-08-04T13:08:10.161Z,3.50
2022-08-04T13:10:40.772Z,3.90
2022-08-04T13:13:16.048Z,4.15
2022-08-04T13:15:46.706Z,3.63
2022-08-04T13:18:15.603Z,3.50
2022-08-04T13:20:44.401Z,3.50
2022-08-04T13:23:21.531Z,3.40
2022-08-04T13:26:42.975Z,3.42
2022-08-04T13:28:45.106Z,3.67
2022-08-04T13:31:16.703Z,3.40
2022-08-04T13:36:14.410Z,3.30
2022-08-04T13:38:49.680Z,3.78
2022-08-04T13:41:17.973Z,3.50
2022-08-04T13:44:17.605Z,3.08
2022-08-04T13:46:50.407Z,4.43
2022-08-04T13:49:38.038Z,3.70
2022-08-04T13:52:11.350Z,3.25
2022-08-04T13:54:47.058Z,3.17
2022-08-04T13:57:19.700Z,3.28
2022-08-04T13:59:52.016Z,3.42
2022-08-04T14:02:40.134Z,2.80
2022-08-04T14:05:27.002Z,3.10
2022-08-04T14:08:20.019Z,2.92
2022-08-04T14:10:55.340Z,2.65
2022-08-04T14:13:41.172Z,2.83
2022-08-04T14:16:20.439Z,2.65
2022-08-04T14:18:57.080Z,3.28
2022-08-04T14:21:24.930Z,2.80
2022-08-04T14:23:57.155Z,2.55
2022-08-04T14:26:32.728Z,2.40
2022-08-04T14:29:28.229Z,3.20
2022-08-04T14:32:13.907Z,2.85
2022-08-04T14:34:45.238Z,2.58
2022-08-04T14:37:19.802Z,2.80
2022-08-04T14:40:08.183Z,2.47
2022-08-04T14:42:42.573Z,2.53
2022-08-04T14:45:10.894Z,2.83
2022-08-04T14:47:51.983Z,2.50
2022-08-04T14:50:20.465Z,2.65
2022-08-04T14:52:47.447Z,2.40
2022-08-04T14:55:24.855Z,2.90
2022-08-04T14:58:32.998Z,2.40
2022-08-04T15:00:39.647Z,2.45
2022-08-04T15:03:11.197Z,2.30
2022-08-04T15:06:02.650Z,2.80
2022-08-04T15:08:31.034Z,2.33
2022-08-04T15:11:02.431Z,2.50
2022-08-04T15:13:32.334Z,3.33
2022-08-04T15:16:07.158Z,2.53
2022-08-04T15:18:39.152Z,2.45
2022-08-04T15:21:07.373Z,2.50
2022-08-04T15:23:39.324Z,2.35
2022-08-04T15:26:11.630Z,2.95
2022-08-04T15:28:42.059Z,2.83
2022-08-04T15:32:06.131Z,2.50
2022-08-04T15:33:58.042Z,3.05
2022-08-04T15:36:34.714Z,3.10
2022-08-04T15:39:11.048Z,2.70
2022-08-04T15:42:01.869Z,3.30
2022-08-04T15:45:03.209Z,2.90
2022-08-04T15:47:30.715Z,2.97
2022-08-04T15:50:12.574Z,2.55
2022-08-04T15:53:12.429Z,2.80
2022-08-04T15:55:44.125Z,2.65
2022-08-04T15:58:13.373Z,2.65
2022-08-04T16:00:49.269Z,2.80
2022-08-04T16:03:57.893Z,2.80
2022-08-04T16:06:22.403Z,2.70
2022-08-04T16:08:57.342Z,2.92
2022-08-04T16:11:31.203Z,2.65
2022-08-04T16:13:59.340Z,2.58
2022-08-04T16:16:31.693Z,2.95
2022-08-04T16:19:17.226Z,2.95
2022-08-04T16:21:49.067Z,3.13
2022-08-04T16:24:19.694Z,3.00
2022-08-04T16:26:54.821Z,2.97
2022-08-04T16:29:23.199Z,3.45
2022-08-04T16:32:06.149Z,2.70
2022-08-04T16:34:50.146Z,3.20
2022-08-04T16:37:22.139Z,2.70
2022-08-04T16:39:51.108Z,2.80
2022-08-04T16:42:28.078Z,3.28
2022-08-04T16:45:13.355Z,2.83
2022-08-04T16:47:49.191Z,2.70
2022-08-04T16:50:22.717Z,2.67
2022-08-04T16:52:51.550Z,2.97
2022-08-04T16:55:27.013Z,2.92
2022-08-04T16:57:56.999Z,2.80
2022-08-04T17:00:33.158Z,2.83
2022-08-04T17:03:09.061Z,3.10
2022-08-04T17:05:39.497Z,3.00
2022-08-04T17:10:56.977Z,2.55
2022-08-04T17:14:03.273Z,2.60
2022-08-04T17:16:18.837Z,2.88
2022-08-04T17:18:48.798Z,2.65
2022-08-04T17:21:22.376Z,2.78
2022-08-04T17:24:15.707Z,2.80
2022-08-04T17:26:45.471Z,3.35
2022-08-04T17:29:22.303Z,2.72
2022-08-04T17:31:49.254Z,2.38
2022-08-04T17:34:21.493Z,2.97
2022-08-04T17:36:49.116Z,2.83
2022-08-04T17:39:20.864Z,3.33
2022-08-04T17:44:17.610Z,3.20
2022-08-04T17:46:48.222Z,2.85
2022-08-04T17:49:18.578Z,2.67
2022-08-04T17:52:04.617Z,2.60
2022-08-04T17:54:44.502Z,2.95
2022-08-04T17:57:21.835Z,2.83
2022-08-04T17:59:59.204Z,3.05
2022-08-04T18:02:53.912Z,2.40
2022-08-04T18:05:50.265Z,2.72
2022-08-04T18:08:45.534Z,3.25
2022-08-04T18:11:03.296Z,3.60
2022-08-04T18:13:42.325Z,3.10
2022-08-04T18:16:22.606Z,2.80
2022-08-04T18:19:13.687Z,3.53
2022-08-04T18:21:46.606Z,3.58
2022-08-04T18:24:35.586Z,2.90
2022-08-04T18:27:17.883Z,2.65
2022-08-04T18:30:14.519Z,3.28
2022-08-04T18:32:33.711Z,3.20
2022-08-04T18:35:05.406Z,3.47
2022-08-04T18:38:06.591Z,3.20
2022-08-04T18:40:29.899Z,3.45
2022-08-04T18:43:03.488Z,3.22
2022-08-04T18:45:34.563Z,3.50
2022-08-04T18:48:04.020Z,3.17
2022-08-04T18:51:10.640Z,4.45
2022-08-04T18:53:35.379Z,3.60
2022-08-04T18:56:06.391Z,3.58
2022-08-04T18:58:51.867Z,3.50
2022-08-04T19:01:29.923Z,4.18
2022-08-04T19:04:32.331Z,3.45
2022-08-04T19:07:04.363Z,3.45
2022-08-04T19:09:52.230Z,3.38
2022-08-04T19:12:27.244Z,3.35
2022-08-04T19:15:10.271Z,3.83
2022-08-04T19:17:53.506Z,4.65
2022-08-04T19:20:26.511Z,4.30
2022-08-04T19:24:10.582Z,3.67
2022-08-04T19:25:59.630Z,3.83
2022-08-04T19:28:34.173Z,3.08
2022-08-04T19:31:03.025Z,3.13
2022-08-04T19:33:55.342Z,3.35
2022-08-04T19:36:17.507Z,3.20
2022-08-04T19:38:45.125Z,3.33
2022-08-04T19:41:14.501Z,3.13
2022-08-04T19:46:29.637Z,3.10
2022-08-04T19:48:58.881Z,3.50
2022-08-04T19:51:30.295Z,3.35
2022-08-04T19:54:03.853Z,3.28
2022-08-04T19:56:40.462Z,3.00
2022-08-04T19:59:09.778Z,3.17
2022-08-04T20:01:44.202Z,3.20
2022-08-04T20:04:12.767Z,3.80
2022-08-04T20:06:39.822Z,3.35
2022-08-04T20:09:26.150Z,3.50
2022-08-04T20:11:57.156Z,3.75
2022-08-04T20:14:32.376Z,3.20
2022-08-04T20:17:02.169Z,3.22
2022-08-04T20:19:30.469Z,3.42
2022-08-04T20:21:58.114Z,3.80
2022-08-04T20:24:40.483Z,4.32
2022-08-04T20:27:14.790Z,3.53
2022-08-04T20:29:46.111Z,3.90
2022-08-04T20:32:22.229Z,3.40
2022-08-04T20:34:51.997Z,3.67
2022-08-04T20:37:23.941Z,4.15
2022-08-04T20:39:59.522Z,3.53
2022-08-04T20:42:34.081Z,8.32
2022-08-04T20:45:02.545Z,3.78
2022-08-04T20:47:35.152Z,3.65
2022-08-04T20:50:08.746Z,4.07
2022-08-04T20:52:37.652Z,7.53
2022-08-04T20:55:06.584Z,4.60
2022-08-04T20:57:48.700Z,4.30
2022-08-04T21:00:26.586Z,3.70
2022-08-04T21:02:57.994Z,4.20
2022-08-04T21:05:26.590Z,4.22
2022-08-04T21:07:57.070Z,4.53
2022-08-04T21:10:25.640Z,4.80
2022-08-04T21:12:54.432Z,4.20
2022-08-04T21:15:25.624Z,4.70
2022-08-04T21:20:43.145Z,4.78
2022-08-04T21:23:28.407Z,10.90
2022-08-04T21:26:04.499Z,8.77
2022-08-04T21:28:32.424Z,6.00
2022-08-04T21:31:02.498Z,4.82
2022-08-04T21:33:50.855Z,5.22
2022-08-04T21:36:19.683Z,8.48
2022-08-04T21:38:51.431Z,5.32
2022-08-04T21:41:20.411Z,5.22
2022-08-04T21:43:52.624Z,5.47
2022-08-04T21:46:20.243Z,5.10
2022-08-04T21:48:48.614Z,5.53
2022-08-04T21:51:57.895Z,5.72
2022-08-04T21:54:15.111Z,5.55
2022-08-04T21:56:50.675Z,5.00
2022-08-04T21:59:23.596Z,6.05
2022-08-04T22:06:10.482Z,5.63
2022-08-04T22:08:49.102Z,5.05
2022-08-04T22:11:48.111Z,5.35
2022-08-04T22:14:27.344Z,5.10
2022-08-04T22:16:58.569Z,5.40
2022-08-04T22:19:49.792Z,5.68
2022-08-04T22:22:26.001Z,5.53
2022-08-04T22:25:13.424Z,4.93
2022-08-04T22:28:03.048Z,4.68
2022-08-04T22:30:37.448Z,5.25
2022-08-04T22:33:08.491Z,5.00
2022-08-04T22:35:48.871Z,5.15
2022-08-04T22:38:26.865Z,4.40
2022-08-04T22:41:05.677Z,5.10
2022-08-04T22:43:35.544Z,6.10
2022-08-04T22:46:19.161Z,4.72
2022-08-04T22:48:47.838Z,4.80
2022-08-04T22:51:19.825Z,4.47
2022-08-04T22:53:51.310Z,4.47
2022-08-04T22:56:37.533Z,3.70
2022-08-04T22:59:11.551Z,3.97
2022-08-04T23:01:59.855Z,4.15
2022-08-04T23:04:31.497Z,4.30
2022-08-04T23:07:00.915Z,4.10
2022-08-04T23:09:50.352Z,4.15
2022-08-04T23:12:25.477Z,3.70
2022-08-04T23:15:00.586Z,3.85
2022-08-04T23:17:28.770Z,4.63
2022-08-04T23:20:00.556Z,3.95
2022-08-04T23:22:36.977Z,4.40
2022-08-04T23:25:16.940Z,4.40
2022-08-04T23:27:51.490Z,4.80
2022-08-04T23:30:29.446Z,5.28
2022-08-04T23:33:01.078Z,4.90
2022-08-04T23:35:28.516Z,4.90
2022-08-04T23:38:00.050Z,4.68
2022-08-04T23:40:50.354Z,4.45
2022-08-04T23:43:19.000Z,4.68
2022-08-04T23:46:05.011Z,4.95
2022-08-04T23:48:39.559Z,5.22
2022-08-04T23:51:14.767Z,5.18
2022-08-04T23:54:02.319Z,4.72
2022-08-04T23:56:33.127Z,5.32
2022-08-04T23:59:03.672Z,5.47
